Time;durP1;ratioP1;P1;durP2;ratioP2;P2;SDS_P1;SDS_P2;PMS_P1;PMS_P2;Temp;Humidity;BMP_temperature;BMP_pressure;BME280_temperature;BME280_humidity;BME280_pressure;Samples;Min_cycle;Max_cycle;Signal;HPM_P1;HPM_P2
2022/08/29 00:01:48;;;;;;;13.10;11.73;;;;;;;;;;16887529;28;20224;-87
2022/08/29 00:10:09;;;;;;;14.07;12.57;;;;;;;;;;16886523;29;20192;-87
2022/08/29 00:18:29;;;;;;;19.00;12.85;;;;;;;;;;16885299;29;20294;-86
2022/08/29 00:26:50;;;;;;;30.25;27.83;;;;;;;;;;16884945;28;20426;-86
2022/08/29 00:35:12;;;;;;;14.70;13.13;;;;;;;;;;16885541;29;20550;-86
2022/08/29 00:43:33;;;;;;;18.13;14.38;;;;;;;;;;16885115;29;20209;-87
2022/08/29 00:51:54;;;;;;;18.73;15.95;;;;;;;;;;16884804;28;20221;-86
2022/08/29 01:00:15;;;;;;;18.63;15.65;;;;;;;;;;16890178;28;20252;-86
2022/08/29 01:08:35;;;;;;;21.63;16.55;;;;;;;;;;16894708;29;20564;-87
2022/08/29 01:16:57;;;;;;;22.33;17.40;;;;;;;;;;16896081;28;20243;-87
2022/08/29 01:25:19;;;;;;;21.98;17.08;;;;;;;;;;16893605;28;20188;-87
2022/08/29 01:33:47;;;;;;;23.25;18.30;;;;;;;;;;16893148;28;20209;-86
2022/08/29 01:42:09;;;;;;;25.17;18.13;;;;;;;;;;16896453;29;20557;-86
2022/08/29 01:50:31;;;;;;;25.55;17.83;;;;;;;;;;16893405;29;20217;-86
2022/08/29 01:58:52;;;;;;;23.88;17.70;;;;;;;;;;16892098;29;20282;-86
2022/08/29 02:07:16;;;;;;;26.27;19.77;;;;;;;;;;16891278;28;20184;-86
2022/08/29 02:15:37;;;;;;;23.42;17.30;;;;;;;;;;16891544;29;20201;-86
2022/08/29 02:23:58;;;;;;;22.85;17.50;;;;;;;;;;16892666;29;20212;-86
2022/08/29 02:32:19;;;;;;;25.80;17.45;;;;;;;;;;16889967;28;20201;-86
2022/08/29 02:40:39;;;;;;;27.80;17.63;;;;;;;;;;16890960;28;20173;-86
2022/08/29 02:49:00;;;;;;;23.90;18.00;;;;;;;;;;16891280;28;20224;-86
2022/08/29 02:57:20;;;;;;;24.13;18.10;;;;;;;;;;16889686;28;20236;-86
2022/08/29 03:05:41;;;;;;;22.85;16.88;;;;;;;;;;16891468;28;20204;-86
2022/08/29 03:14:01;;;;;;;19.13;16.10;;;;;;;;;;16889216;29;20597;-85
2022/08/29 03:22:21;;;;;;;19.33;16.42;;;;;;;;;;16888664;28;20184;-85
2022/08/29 03:30:42;;;;;;;19.60;16.85;;;;;;;;;;16890221;28;20271;-85
2022/08/29 03:39:02;;;;;;;18.38;16.30;;;;;;;;;;16888913;29;20247;-86
2022/08/29 03:47:23;;;;;;;17.42;15.52;;;;;;;;;;16887480;28;20322;-86
2022/08/29 03:55:43;;;;;;;18.88;14.82;;;;;;;;;;16886797;28;20681;-86
2022/08/29 04:04:04;;;;;;;13.38;12.07;;;;;;;;;;16886901;29;20180;-86
2022/08/29 04:12:24;;;;;;;11.77;10.57;;;;;;;;;;16885525;29;20244;-86
2022/08/29 04:20:45;;;;;;;10.68;8.88;;;;;;;;;;16886088;28;20173;-86
2022/08/29 04:29:09;;;;;;;9.77;8.30;;;;;;;;;;16884824;29;20625;-87
2022/08/29 04:37:30;;;;;;;9.25;8.15;;;;;;;;;;16894205;29;20660;-87
2022/08/29 04:45:54;;;;;;;8.02;7.28;;;;;;;;;;16896776;29;20197;-87
2022/08/29 04:54:14;;;;;;;9.32;7.28;;;;;;;;;;16894914;28;20212;-87
2022/08/29 05:02:35;;;;;;;7.68;6.97;;;;;;;;;;16895975;29;20174;-87
2022/08/29 05:10:55;;;;;;;7.70;6.90;;;;;;;;;;16895220;29;20217;-87
2022/08/29 05:19:15;;;;;;;8.95;8.18;;;;;;;;;;16894916;29;20212;-87
2022/08/29 05:27:36;;;;;;;8.48;7.78;;;;;;;;;;16894509;28;20265;-86
2022/08/29 05:35:57;;;;;;;8.90;7.95;;;;;;;;;;16892810;28;20216;-87
2022/08/29 05:44:17;;;;;;;8.13;7.40;;;;;;;;;;16892393;29;20201;-86
2022/08/29 05:52:39;;;;;;;9.43;7.95;;;;;;;;;;16893244;29;20205;-86
2022/08/29 06:00:59;;;;;;;8.02;7.20;;;;;;;;;;16893547;29;20344;-86
2022/08/29 06:09:20;;;;;;;7.90;7.18;;;;;;;;;;16892497;29;20264;-86
2022/08/29 06:17:40;;;;;;;8.07;7.32;;;;;;;;;;16892016;29;20236;-86
2022/08/29 06:26:00;;;;;;;7.57;6.97;;;;;;;;;;16891683;29;20260;-86
2022/08/29 06:34:21;;;;;;;8.85;7.63;;;;;;;;;;16890247;29;20197;-86
2022/08/29 06:42:41;;;;;;;8.60;7.80;;;;;;;;;;16890036;29;20213;-86
2022/08/29 06:51:02;;;;;;;8.02;7.22;;;;;;;;;;16890377;28;20205;-87
2022/08/29 06:59:23;;;;;;;9.65;8.73;;;;;;;;;;16890150;28;20743;-86
2022/08/29 07:07:43;;;;;;;8.73;7.75;;;;;;;;;;16890469;29;20201;-87
2022/08/29 07:16:06;;;;;;;8.88;7.97;;;;;;;;;;16889003;29;20211;-87
2022/08/29 07:24:26;;;;;;;9.05;8.25;;;;;;;;;;16887645;28;20643;-86
2022/08/29 07:32:47;;;;;;;8.52;7.68;;;;;;;;;;16887908;28;20216;-86
2022/08/29 07:41:09;;;;;;;11.18;9.73;;;;;;;;;;16887082;28;20256;-85
2022/08/29 07:49:31;;;;;;;9.98;8.98;;;;;;;;;;16887144;29;20197;-87
2022/08/29 07:57:52;;;;;;;9.48;8.27;;;;;;;;;;16887301;28;20272;-87
2022/08/29 08:06:12;;;;;;;8.85;7.93;;;;;;;;;;16886031;29;20181;-88
2022/08/29 08:14:33;;;;;;;7.20;6.60;;;;;;;;;;16886440;28;20212;-89
2022/08/29 08:22:53;;;;;;;9.90;6.63;;;;;;;;;;16884130;28;20188;-89
2022/08/29 08:31:14;;;;;;;6.63;5.93;;;;;;;;;;16885053;28;20680;-87
2022/08/29 08:39:35;;;;;;;6.05;5.45;;;;;;;;;;16884257;28;20236;-89
2022/08/29 08:48:01;;;;;;;5.50;5.00;;;;;;;;;;16883826;28;20197;-88
2022/08/29 08:56:25;;;;;;;5.55;4.95;;;;;;;;;;16884057;28;20241;-88
2022/08/29 09:05:04;;;;;;;5.90;5.30;;;;;;;;;;16883337;29;20173;-89
2022/08/29 09:13:46;;;;;;;5.00;4.50;;;;;;;;;;16882924;29;20271;-89
2022/08/29 09:22:13;;;;;;;5.63;4.32;;;;;;;;;;16891807;29;20177;-89
2022/08/29 09:30:35;;;;;;;5.55;5.03;;;;;;;;;;16894160;29;20520;-88
2022/08/29 09:39:08;;;;;;;6.53;4.60;;;;;;;;;;16892252;28;20180;-88
2022/08/29 09:47:30;;;;;;;5.30;4.43;;;;;;;;;;16891868;29;20208;-88
2022/08/29 09:55:51;;;;;;;4.80;4.40;;;;;;;;;;16891928;28;20236;-88
2022/08/29 10:04:12;;;;;;;6.05;4.20;;;;;;;;;;16891099;29;20173;-88
2022/08/29 10:12:39;;;;;;;4.82;4.38;;;;;;;;;;16892536;29;20205;-86
2022/08/29 10:21:06;;;;;;;5.13;4.20;;;;;;;;;;16889703;28;20328;-86
2022/08/29 10:29:30;;;;;;;4.47;4.03;;;;;;;;;;16890316;29;20200;-87
2022/08/29 10:37:50;;;;;;;5.18;4.15;;;;;;;;;;16890399;29;20212;-87
2022/08/29 10:46:31;;;;;;;4.30;3.50;;;;;;;;;;16889223;29;20201;-86
2022/08/29 10:54:55;;;;;;;5.97;3.60;;;;;;;;;;16890134;28;20302;-86
2022/08/29 11:03:19;;;;;;;4.35;3.90;;;;;;;;;;16888664;29;20629;-86
2022/08/29 11:11:44;;;;;;;3.75;3.40;;;;;;;;;;16888047;28;20292;-87
2022/08/29 11:20:10;;;;;;;5.40;4.00;;;;;;;;;;16888500;29;20201;-86
2022/08/29 11:28:39;;;;;;;5.25;3.70;;;;;;;;;;16888715;28;20177;-86
2022/08/29 11:37:27;;;;;;;5.13;3.35;;;;;;;;;;16888658;29;20224;-86
2022/08/29 11:45:59;;;;;;;4.38;3.38;;;;;;;;;;16887694;29;20205;-85
2022/08/29 11:54:22;;;;;;;3.38;3.08;;;;;;;;;;16887077;28;20201;-85
2022/08/29 12:02:42;;;;;;;4.85;3.53;;;;;;;;;;16886672;29;20588;-86
2022/08/29 12:11:03;;;;;;;4.55;3.75;;;;;;;;;;16886244;28;20208;-86
2022/08/29 12:19:42;;;;;;;7.05;4.07;;;;;;;;;;16885989;28;20177;-86
2022/08/29 12:28:22;;;;;;;4.25;3.67;;;;;;;;;;16884639;29;20199;-86
2022/08/29 12:36:48;;;;;;;5.72;4.10;;;;;;;;;;16885494;29;20212;-86
2022/08/29 12:45:16;;;;;;;4.30;3.90;;;;;;;;;;16884875;29;20232;-86
2022/08/29 12:53:37;;;;;;;4.57;3.72;;;;;;;;;;16885934;29;20205;-87
2022/08/29 13:01:58;;;;;;;4.85;3.80;;;;;;;;;;16893971;28;20585;-86
2022/08/29 13:10:18;;;;;;;3.90;3.50;;;;;;;;;;16894182;29;20219;-86
2022/08/29 13:18:39;;;;;;;3.92;3.60;;;;;;;;;;16893796;29;20213;-87
2022/08/29 13:26:59;;;;;;;5.53;4.10;;;;;;;;;;16894669;29;20174;-86
2022/08/29 13:35:28;;;;;;;27.98;26.20;;;;;;;;;;16892762;29;20217;-86
2022/08/29 13:43:48;;;;;;;4.80;3.38;;;;;;;;;;16894661;29;20205;-87
2022/08/29 13:52:09;;;;;;;4.35;3.78;;;;;;;;;;16892230;28;20205;-86
2022/08/29 14:00:32;;;;;;;6.80;3.90;;;;;;;;;;16893848;28;20673;-87
2022/08/29 14:08:53;;;;;;;5.10;3.88;;;;;;;;;;16891105;28;20181;-87
2022/08/29 14:17:14;;;;;;;4.60;4.15;;;;;;;;;;16891775;29;20552;-88
2022/08/29 14:25:34;;;;;;;5.75;3.75;;;;;;;;;;16890420;28;20174;-87
2022/08/29 14:33:54;;;;;;;5.28;3.60;;;;;;;;;;16889575;29;20300;-88
2022/08/29 14:42:15;;;;;;;5.82;3.97;;;;;;;;;;16890226;29;20181;-87
2022/08/29 14:50:35;;;;;;;4.15;3.75;;;;;;;;;;16889583;28;20212;-88
2022/08/29 14:58:56;;;;;;;6.28;3.55;;;;;;;;;;16890033;28;20295;-88
2022/08/29 15:07:17;;;;;;;4.80;4.18;;;;;;;;;;16889563;28;20180;-87
2022/08/29 15:15:37;;;;;;;4.95;3.50;;;;;;;;;;16887499;29;20295;-88
2022/08/29 15:23:57;;;;;;;3.92;3.50;;;;;;;;;;16889575;29;20181;-88
2022/08/29 15:32:21;;;;;;;4.88;3.53;;;;;;;;;;16887622;29;20208;-88
2022/08/29 15:40:41;;;;;;;4.72;4.15;;;;;;;;;;16886554;28;20185;-88
2022/08/29 15:49:04;;;;;;;5.22;4.00;;;;;;;;;;16885965;29;20641;-88
2022/08/29 15:57:25;;;;;;;8.63;7.82;;;;;;;;;;16886322;28;20692;-88
2022/08/29 16:05:45;;;;;;;7.05;5.40;;;;;;;;;;16885341;29;20231;-88
2022/08/29 16:14:06;;;;;;;6.22;3.47;;;;;;;;;;16884917;28;20295;-87
2022/08/29 16:22:27;;;;;;;16.17;15.15;;;;;;;;;;16886013;28;20176;-87
2022/08/29 16:30:48;;;;;;;5.88;4.57;;;;;;;;;;16883474;28;20239;-87
2022/08/29 16:39:09;;;;;;;5.78;4.20;;;;;;;;;;16885356;29;20231;-87
2022/08/29 16:47:29;;;;;;;5.38;4.40;;;;;;;;;;16884982;29;20668;-88
2022/08/29 16:55:50;;;;;;;6.85;4.03;;;;;;;;;;16883593;28;20324;-86
2022/08/29 17:04:11;;;;;;;6.13;4.20;;;;;;;;;;16883480;28;20174;-84
2022/08/29 17:20:52;;;;;;;5.32;4.20;;;;;;;;;;16884855;28;20528;-85
2022/08/29 17:29:13;;;;;;;7.25;4.80;;;;;;;;;;16882211;29;20193;-85
2022/08/29 17:37:34;;;;;;;8.00;5.53;;;;;;;;;;16882237;28;20300;-85
2022/08/29 17:45:56;;;;;;;10.73;5.05;;;;;;;;;;16893033;28;20197;-86
2022/08/29 17:54:17;;;;;;;9.90;5.32;;;;;;;;;;16892217;28;20205;-86
2022/08/29 18:02:37;;;;;;;7.20;5.30;;;;;;;;;;16894018;29;20245;-86
2022/08/29 18:10:58;;;;;;;12.97;6.87;;;;;;;;;;16893319;29;20235;-87
2022/08/29 18:19:20;;;;;;;47.37;22.73;;;;;;;;;;16893052;28;20921;-87
2022/08/29 18:27:41;;;;;;;61.00;30.33;;;;;;;;;;16891525;29;20614;-86
2022/08/29 18:36:03;;;;;;;38.23;20.17;;;;;;;;;;16890018;28;20262;-86
2022/08/29 18:44:24;;;;;;;14.20;8.77;;;;;;;;;;16889558;29;20208;-86
2022/08/29 18:52:44;;;;;;;8.70;6.83;;;;;;;;;;16888520;28;20275;-85
2022/08/29 19:01:12;;;;;;;9.23;6.97;;;;;;;;;;16890535;29;20233;-86
2022/08/29 19:09:33;;;;;;;15.67;8.30;;;;;;;;;;16888480;29;20189;-86
2022/08/29 19:17:55;;;;;;;10.07;7.20;;;;;;;;;;16888924;28;20229;-86
2022/08/29 19:26:20;;;;;;;9.50;7.10;;;;;;;;;;16888590;28;20220;-86
2022/08/29 19:34:40;;;;;;;8.60;7.30;;;;;;;;;;16886931;29;20208;-87
2022/08/29 19:43:01;;;;;;;10.13;7.43;;;;;;;;;;16887604;28;20205;-88
2022/08/29 19:51:22;;;;;;;8.93;7.23;;;;;;;;;;16887118;28;20220;-87
2022/08/29 19:59:43;;;;;;;8.47;7.00;;;;;;;;;;16886469;28;20263;-86
2022/08/29 20:08:03;;;;;;;15.07;13.57;;;;;;;;;;16885380;28;20812;-87
2022/08/29 20:16:26;;;;;;;6.83;6.13;;;;;;;;;;16886221;29;20201;-86
2022/08/29 20:24:46;;;;;;;10.50;6.17;;;;;;;;;;16884772;29;20203;-86
2022/08/29 20:33:07;;;;;;;8.53;5.70;;;;;;;;;;16885544;29;20201;-88
2022/08/29 20:41:27;;;;;;;11.90;10.17;;;;;;;;;;16884112;28;20174;-87
2022/08/29 20:49:49;;;;;;;11.77;10.70;;;;;;;;;;16886097;28;20515;-88
2022/08/29 20:58:09;;;;;;;9.70;6.60;;;;;;;;;;16884636;28;20307;-87
2022/08/29 21:06:30;;;;;;;6.43;5.80;;;;;;;;;;16884327;28;20231;-87
2022/08/29 21:14:50;;;;;;;8.47;5.80;;;;;;;;;;16886685;28;20197;-88
2022/08/29 21:23:11;;;;;;;9.53;6.17;;;;;;;;;;16895242;29;20559;-87
2022/08/29 21:31:32;;;;;;;8.63;6.10;;;;;;;;;;16893837;29;20663;-87
2022/08/29 21:39:52;;;;;;;9.97;6.60;;;;;;;;;;16894013;28;20187;-87
2022/08/29 21:48:12;;;;;;;10.80;6.70;;;;;;;;;;16892647;29;20198;-87
2022/08/29 21:56:33;;;;;;;8.20;6.90;;;;;;;;;;16893258;28;20597;-88
2022/08/29 22:04:53;;;;;;;8.93;6.67;;;;;;;;;;16893094;29;20177;-87
2022/08/29 22:13:14;;;;;;;9.23;8.07;;;;;;;;;;16891319;29;20739;-87
2022/08/29 22:21:42;;;;;;;20.53;18.97;;;;;;;;;;16891916;28;20694;-87
2022/08/29 22:30:03;;;;;;;10.87;9.80;;;;;;;;;;16889604;29;20177;-87
2022/08/29 22:38:23;;;;;;;9.23;7.47;;;;;;;;;;16889815;29;20217;-87
2022/08/29 22:46:44;;;;;;;12.20;11.17;;;;;;;;;;16888667;29;20605;-87
2022/08/29 22:55:05;;;;;;;7.87;7.00;;;;;;;;;;16888757;28;20251;-86
2022/08/29 23:03:25;;;;;;;13.20;11.93;;;;;;;;;;16889519;29;20209;-87
2022/08/29 23:11:46;;;;;;;6.53;5.93;;;;;;;;;;16888592;29;20681;-89
2022/08/29 23:20:08;;;;;;;9.83;8.83;;;;;;;;;;16888186;29;20208;-89
2022/08/29 23:28:28;;;;;;;9.47;8.47;;;;;;;;;;16885328;28;20177;-86
2022/08/29 23:36:48;;;;;;;11.30;6.30;;;;;;;;;;16886991;29;20779;-87
2022/08/29 23:45:09;;;;;;;8.50;6.37;;;;;;;;;;16886301;29;20209;-88
2022/08/29 23:53:29;;;;;;;6.33;5.63;;;;;;;;;;16887572;28;20208;-88
